Mexico Beach, Florida
Current Conditions -  °F | °C
As of 4:58 PM on Thursday 27 Nov 2014 (Local Time) from KPAM Reporting Station
Clear Clear  
Wind Chill: 55°   Ceiling: Unl
Heat Index: 55°   Visibility: 10mi
Dew Point: 36°   Wind: 9mph
Humidity: 50%   Direction: 350°N
Pressure: 30.33"   Gusts: NA
Location:  29.95°N, 85.42°W
Report Text: KPAM 272258Z AUTO 35008KT 10SM CLR 13/02 A3033 RMK AO2 SLP274 T01260024 $
Loading
Personal Weather Stations






























Interactive Weather Map New forecast layout! Learn more

10-Day Weather Forecast

Advertisements
Track Severe Weather on mobile